Tampa, FL

6:21 PM EDT on August 30, 2014 (GMT -0400)
Ballard Park | Change Station
CLOSE
Current Station
Personal Weather Station
Location: Tampa, FL
Elevation: 63 ft
Nearby Weather Stations
Active Advisory: Special Statement

Elev 63 ft 28.02 °N, 82.48 °W | Updated 4 seconds ago

Overcast
Overcast
90.3 °F
Feels Like 86 °F
N
0.0
Wind Variable Wind from NNW
Gusts 0.0 mph

Today
High -- | Low -- °F
--% Chance of Precip.
Yesterday
High -- | Low -- °F
Precip. -- in
7:07 AM 7:52 PM
Waxing Crescent, 25% visible
Pressure 30.04 in
Visibility 8.0 miles
Clouds Few 2000 ft
Scattered Clouds 3500 ft
Mostly Cloudy 25000 ft
Heat Index 86 °F
Dew Point 31 °F
Humidity 12%
Rainfall 0.00 in
Snow Depth Not available.
UV 1 out of 12
Pollen 4.30 out of 12
Air Quality Not available.
Flu Activity Not available.
SPECI KTPA 302216Z 31003KT 8SM TS FEW020 SCT035CB BKN250 31/22 A3004 RMK AO2 RAB2157E12 TSB16 FRQ LTGICCG E TS E MOV E P0001 T03110222

More Conditions Fewer Conditions

Pressure 30.04 in
Visibility 8.0 miles
Clouds Few 2000 ft
Scattered Clouds 3500 ft
Mostly Cloudy 25000 ft
Heat Index 86 °F
Dew Point 31 °F
Humidity 12%
Rainfall 0.00 in
Snow Depth Not available.
UV 1 out of 12
Pollen 4.30 out of 12
Air Quality Not available.
Flu Activity Not available.
SPECI KTPA 302216Z 31003KT 8SM TS FEW020 SCT035CB BKN250 31/22 A3004 RMK AO2 RAB2157E12 TSB16 FRQ LTGICCG E TS E MOV E P0001 T03110222

More Conditions Fewer Conditions

10-Day Weather Forecast

Almanac

Astronomy

Aug. 30, 2014 Rise Set
Actual Time 7:07 AM EDT 7:52 PM EDT
Civil Twilight 6:43 AM EDT 8:16 PM EDT
Nautical Twilight 6:15 AM EDT 8:44 PM EDT
Astronomical Twilight 5:46 AM EDT 9:13 PM EDT
Moon 11:26 AM EDT 10:55 PM EDT
Length of Visible Light 13h 33m
Length of Day
12h 45m
Tomorrow will be 1m 34s shorter.
Waxing Crescent, 25% of the Moon is Illuminated
Today
Waxing Crescent
Sep 2
First Quarter
Sep 8
Full
Sep 15
Last Quarter
Sep 24
New

Today's Extremes

State Highs State Lows

Community

WunderPhotos

Upload Photos

1,748,657 photos uploaded!

WunderBlogs® & News

Nearby

Snow Depth

Station Depth Elevation
No new snow has been reported.

Earthquake Activity

City Distance Mag. Time & Date
No recent earthquake activity has been reported nearby.
Minimum magnitude displayed is 2.5.

Coastal Water Temperatures

Place Temperature
St Petersburg, FL 90.0 °F
Old Port Tampa, FL 88.0 °F
McKay Bay Entrance, FL 89.1 °F

Nearby Weather Stations